createdAt,value
2019-04-30T00:00:38.554Z,0.00
2019-04-30T00:01:38.556Z,0.00
2019-04-30T00:02:40.065Z,0.00
2019-04-30T00:03:38.473Z,0.00
2019-04-30T00:04:47.070Z,0.00
2019-04-30T00:06:47.043Z,0.00
2019-04-30T00:07:39.802Z,0.00
2019-04-30T00:09:49.238Z,0.00
2019-04-30T00:10:41.514Z,0.00
2019-04-30T00:11:41.117Z,0.00
2019-04-30T00:12:41.090Z,0.00
2019-04-30T00:13:41.062Z,0.00
2019-04-30T00:14:41.369Z,0.00
2019-04-30T00:15:41.023Z,0.00
2019-04-30T00:16:40.993Z,0.00
2019-04-30T00:17:40.967Z,0.00
2019-04-30T00:18:55.164Z,0.00
2019-04-30T00:19:40.920Z,0.00
2019-04-30T00:20:40.899Z,0.00
2019-04-30T00:21:40.872Z,0.00
2019-04-30T00:22:47.149Z,0.00
2019-04-30T00:23:40.825Z,0.00
2019-04-30T00:24:46.815Z,0.00
2019-04-30T00:25:40.777Z,0.00
2019-04-30T00:26:46.749Z,0.00
2019-04-30T00:27:40.730Z,0.00
2019-04-30T00:28:44.374Z,0.00
2019-04-30T00:29:40.680Z,0.00
2019-04-30T00:30:43.877Z,0.00
2019-04-30T00:31:40.631Z,0.00
2019-04-30T00:32:43.826Z,0.00
2019-04-30T00:33:40.583Z,0.00
2019-04-30T00:34:40.574Z,0.00
2019-04-30T00:35:40.534Z,0.00
2019-04-30T00:36:40.511Z,0.00
2019-04-30T00:37:40.486Z,0.00
2019-04-30T00:38:40.464Z,0.00
2019-04-30T00:39:44.436Z,0.00
2019-04-30T00:40:40.414Z,0.00
2019-04-30T00:41:45.972Z,0.00
2019-04-30T00:42:40.370Z,0.00
2019-04-30T00:43:46.465Z,0.00
2019-04-30T00:44:40.317Z,0.00
2019-04-30T00:45:44.913Z,0.00
2019-04-30T00:46:40.288Z,0.00
2019-04-30T00:47:44.438Z,0.00
2019-04-30T00:48:40.223Z,0.00
2019-04-30T00:49:40.192Z,0.00
2019-04-30T00:50:40.173Z,0.00
2019-04-30T00:51:40.148Z,0.00
2019-04-30T00:52:40.126Z,0.00
2019-04-30T00:53:43.796Z,0.00
2019-04-30T00:54:40.078Z,0.00
2019-04-30T00:55:44.249Z,0.00
2019-04-30T00:56:40.034Z,0.00
2019-04-30T00:57:43.547Z,0.00
2019-04-30T00:58:39.981Z,0.00
2019-04-30T00:59:44.002Z,0.00
2019-04-30T01:00:39.937Z,0.00
2019-04-30T01:01:43.519Z,0.00
2019-04-30T01:02:39.884Z,0.00
2019-04-30T01:03:46.369Z,0.00
2019-04-30T01:04:39.843Z,0.00
2019-04-30T01:05:43.868Z,0.00
2019-04-30T01:06:39.790Z,0.00
2019-04-30T01:07:47.969Z,0.00
2019-04-30T01:08:39.749Z,0.00
2019-04-30T01:09:43.581Z,0.00
2019-04-30T01:10:39.697Z,0.00
2019-04-30T01:11:44.007Z,0.00
2019-04-30T01:12:44.922Z,0.00
2019-04-30T01:13:45.553Z,0.00
2019-04-30T01:14:39.594Z,0.00
2019-04-30T01:15:39.578Z,0.00
2019-04-30T01:16:39.544Z,0.00
2019-04-30T01:17:40.884Z,0.00
2019-04-30T01:18:39.505Z,0.00
2019-04-30T01:19:39.654Z,0.00
2019-04-30T01:20:40.719Z,0.00
2019-04-30T01:21:40.229Z,0.00
2019-04-30T01:22:39.409Z,0.00
2019-04-30T01:23:43.186Z,0.00
2019-04-30T01:24:39.363Z,0.00
2019-04-30T01:25:43.210Z,0.00
2019-04-30T01:26:39.401Z,0.00
2019-04-30T01:27:45.468Z,0.00
2019-04-30T01:28:39.271Z,0.00
2019-04-30T01:29:44.165Z,0.00
2019-04-30T01:30:39.439Z,0.00
2019-04-30T01:31:40.835Z,0.00
2019-04-30T01:32:39.505Z,0.00
2019-04-30T01:33:39.172Z,0.00
2019-04-30T01:34:39.556Z,0.00
2019-04-30T01:35:40.590Z,0.00
2019-04-30T01:36:39.320Z,0.00
2019-04-30T01:37:39.050Z,0.00
2019-04-30T01:38:40.360Z,0.00
2019-04-30T01:39:39.181Z,0.00
2019-04-30T01:40:42.802Z,0.00
2019-04-30T01:41:40.237Z,0.00
2019-04-30T01:42:41.122Z,0.00
2019-04-30T01:43:38.910Z,0.00
2019-04-30T01:44:39.232Z,0.00
2019-04-30T01:45:38.857Z,0.00
2019-04-30T01:46:39.118Z,0.00
2019-04-30T01:47:39.703Z,0.00
2019-04-30T01:48:39.323Z,0.00
2019-04-30T01:49:42.653Z,0.00
2019-04-30T01:50:42.058Z,0.00
2019-04-30T01:51:38.788Z,0.00
2019-04-30T01:52:38.835Z,0.00
2019-04-30T01:53:38.872Z,0.00
2019-04-30T01:54:39.150Z,0.00
2019-04-30T01:55:38.973Z,0.00
2019-04-30T01:56:38.996Z,0.00
2019-04-30T01:57:39.035Z,0.00
2019-04-30T01:58:39.358Z,0.00
2019-04-30T01:59:38.830Z,0.00
2019-04-30T02:00:39.153Z,0.00
2019-04-30T02:01:39.047Z,0.00
2019-04-30T02:02:39.431Z,0.00
2019-04-30T02:03:40.038Z,0.00
2019-04-30T02:04:39.327Z,0.00
2019-04-30T02:05:38.621Z,0.00
2019-04-30T02:06:39.156Z,0.00
2019-04-30T02:07:38.845Z,0.00
2019-04-30T02:08:39.312Z,0.00
2019-04-30T02:09:38.860Z,0.00
2019-04-30T02:10:38.262Z,0.00
2019-04-30T02:11:38.865Z,0.00
2019-04-30T02:12:39.277Z,0.00
2019-04-30T02:13:39.220Z,0.00
2019-04-30T02:14:39.484Z,0.00
2019-04-30T02:15:39.036Z,0.00
2019-04-30T02:16:39.585Z,0.00
2019-04-30T02:17:38.870Z,0.00
2019-04-30T02:18:39.411Z,0.00
2019-04-30T02:19:39.085Z,0.00
2019-04-30T02:20:38.451Z,0.00
2019-04-30T02:21:38.575Z,0.00
2019-04-30T02:22:38.959Z,0.00
2019-04-30T02:23:39.245Z,0.00
2019-04-30T02:24:38.674Z,0.00
2019-04-30T02:25:39.805Z,0.00
2019-04-30T02:26:38.477Z,0.00
2019-04-30T02:27:39.061Z,0.00
2019-04-30T02:28:39.372Z,0.00
2019-04-30T02:29:39.685Z,0.00
2019-04-30T02:30:40.326Z,0.00
2019-04-30T02:31:40.595Z,0.00
2019-04-30T02:32:39.496Z,0.00
2019-04-30T02:33:40.383Z,0.00
2019-04-30T02:34:41.133Z,0.00
2019-04-30T02:35:40.486Z,0.00
2019-04-30T02:36:40.368Z,0.00
2019-04-30T02:37:40.382Z,0.00
2019-04-30T02:38:39.643Z,0.00
2019-04-30T02:39:40.128Z,0.00
2019-04-30T02:40:39.329Z,0.00
2019-04-30T02:41:40.847Z,0.00
2019-04-30T02:42:39.746Z,0.00
2019-04-30T02:43:39.744Z,0.00
2019-04-30T02:44:37.421Z,0.00
2019-04-30T02:45:39.951Z,0.00
2019-04-30T02:46:40.196Z,0.00
2019-04-30T02:47:39.810Z,0.00
2019-04-30T02:48:39.724Z,0.00
2019-04-30T02:49:39.746Z,0.00
2019-04-30T02:50:39.312Z,0.00
2019-04-30T02:51:39.779Z,0.00
2019-04-30T02:52:37.226Z,0.00
2019-04-30T02:53:37.193Z,0.00
2019-04-30T02:54:39.463Z,0.00
2019-04-30T02:55:37.162Z,0.00
2019-04-30T02:56:39.808Z,0.00
2019-04-30T02:57:39.482Z,0.00
2019-04-30T02:58:37.082Z,0.00
2019-04-30T02:59:40.136Z,0.00
2019-04-30T03:00:39.347Z,0.00
2019-04-30T03:01:37.011Z,0.00
2019-04-30T03:02:39.175Z,0.00
2019-04-30T03:03:39.688Z,0.00
2019-04-30T03:04:39.388Z,0.00
2019-04-30T03:05:39.119Z,0.00
2019-04-30T03:06:36.882Z,0.00
2019-04-30T03:07:36.855Z,0.00
2019-04-30T03:08:36.827Z,0.00
2019-04-30T03:09:39.327Z,0.00
2019-04-30T03:10:36.775Z,0.00
2019-04-30T03:11:36.759Z,0.00
2019-04-30T03:12:36.728Z,0.00
2019-04-30T03:13:40.057Z,0.00
2019-04-30T03:14:36.679Z,0.00
2019-04-30T03:15:39.236Z,0.00
2019-04-30T03:16:36.620Z,0.00
2019-04-30T03:17:39.336Z,0.00
2019-04-30T03:18:36.576Z,0.00
2019-04-30T03:19:36.557Z,0.00
2019-04-30T03:20:36.847Z,0.00
2019-04-30T03:21:36.501Z,0.00
2019-04-30T03:22:36.475Z,0.00
2019-04-30T03:23:38.979Z,0.00
2019-04-30T03:24:36.420Z,0.00
2019-04-30T03:25:36.405Z,0.00
2019-04-30T03:26:36.376Z,0.00
2019-04-30T03:27:36.349Z,0.00
2019-04-30T03:28:36.325Z,0.00
2019-04-30T03:29:36.294Z,0.00
2019-04-30T03:30:36.324Z,0.00
2019-04-30T03:31:36.260Z,0.00
2019-04-30T03:32:36.773Z,0.00
2019-04-30T03:33:36.213Z,0.00
2019-04-30T03:34:36.186Z,0.00
2019-04-30T03:35:36.148Z,0.00
2019-04-30T03:36:36.118Z,0.00
2019-04-30T03:37:36.097Z,0.00
2019-04-30T03:38:36.076Z,0.00
2019-04-30T03:39:36.048Z,0.00
2019-04-30T03:40:36.020Z,0.00
2019-04-30T03:41:35.994Z,0.00
2019-04-30T03:42:35.964Z,0.00
2019-04-30T03:43:35.959Z,0.00
2019-04-30T03:44:35.918Z,5.63
2019-04-30T03:45:35.891Z,5.63
2019-04-30T03:46:35.879Z,5.63
2019-04-30T03:47:43.360Z,5.63
2019-04-30T03:49:30.966Z,5.63
2019-04-30T03:50:48.122Z,11.25
2019-04-30T03:52:24.766Z,11.25
2019-04-30T03:53:31.906Z,11.25
2019-04-30T03:55:25.128Z,16.88
2019-04-30T03:56:24.762Z,16.88
2019-04-30T03:58:21.187Z,22.50
2019-04-30T03:59:10.985Z,22.50
2019-04-30T04:01:03.320Z,28.13
2019-04-30T04:02:03.295Z,28.13
2019-04-30T04:03:56.179Z,33.75
2019-04-30T04:04:56.121Z,39.38
2019-04-30T04:06:50.031Z,45.00
2019-04-30T04:07:53.106Z,45.00
2019-04-30T04:09:51.573Z,50.63
2019-04-30T04:10:44.348Z,56.25
2019-04-30T04:12:39.384Z,61.88
2019-04-30T04:13:39.906Z,61.88
2019-04-30T04:15:30.074Z,73.13
2019-04-30T04:16:32.265Z,73.13
2019-04-30T04:18:25.450Z,84.38
2019-04-30T04:19:25.389Z,84.38
2019-04-30T04:20:25.377Z,90.00
2019-04-30T04:21:25.858Z,95.63
2019-04-30T04:22:25.335Z,101.25
2019-04-30T04:23:25.312Z,106.88
2019-04-30T04:24:25.290Z,106.88
2019-04-30T04:25:25.281Z,112.50
2019-04-30T04:26:25.230Z,123.75
2019-04-30T04:27:25.269Z,129.38
2019-04-30T04:28:25.205Z,135.00
2019-04-30T04:29:25.162Z,140.63
2019-04-30T04:30:25.140Z,146.25
2019-04-30T04:31:33.736Z,151.88
2019-04-30T04:33:19.942Z,157.50
2019-04-30T04:34:19.777Z,163.13
2019-04-30T04:36:10.818Z,174.38
2019-04-30T04:37:10.785Z,180.00
2019-04-30T04:39:03.683Z,191.25
2019-04-30T04:40:03.623Z,191.25
2019-04-30T04:42:00.044Z,202.50
2019-04-30T04:43:00.066Z,208.13
2019-04-30T04:44:51.441Z,219.38
2019-04-30T04:45:51.390Z,225.00
2019-04-30T04:47:44.304Z,230.63
2019-04-30T04:48:44.241Z,236.25
2019-04-30T04:50:39.798Z,247.50
2019-04-30T04:51:41.116Z,247.50
2019-04-30T04:53:33.000Z,258.75
2019-04-30T04:54:32.984Z,264.38
2019-04-30T04:55:32.944Z,264.38
2019-04-30T04:56:32.926Z,270.00
2019-04-30T04:57:32.897Z,275.63
2019-04-30T04:58:32.909Z,281.25
2019-04-30T04:59:32.833Z,292.50
2019-04-30T05:00:32.824Z,360.00
2019-04-30T05:01:32.822Z,455.63
2019-04-30T05:02:33.001Z,466.88
2019-04-30T05:03:32.754Z,483.75
2019-04-30T05:04:32.729Z,517.50
2019-04-30T05:05:32.684Z,506.25
2019-04-30T05:06:32.679Z,534.38
2019-04-30T05:07:32.671Z,551.25
2019-04-30T05:08:32.664Z,585.00
2019-04-30T05:09:32.667Z,652.50
2019-04-30T05:10:32.580Z,675.00
2019-04-30T05:11:32.580Z,691.88
2019-04-30T05:12:32.519Z,680.63
2019-04-30T05:13:34.648Z,669.38
2019-04-30T05:14:32.497Z,691.88
2019-04-30T05:15:32.445Z,708.75
2019-04-30T05:16:32.409Z,748.13
2019-04-30T05:17:32.406Z,736.88
2019-04-30T05:18:32.414Z,697.50
2019-04-30T05:19:32.364Z,714.38
2019-04-30T05:20:32.354Z,753.75
2019-04-30T05:21:42.053Z,765.00
2019-04-30T05:22:32.280Z,748.13
2019-04-30T05:23:32.276Z,793.13
2019-04-30T05:24:32.229Z,877.50
2019-04-30T05:25:32.206Z,916.88
2019-04-30T05:26:32.178Z,933.75
2019-04-30T05:27:32.199Z,939.38
2019-04-30T05:28:32.155Z,883.13
2019-04-30T05:29:32.154Z,877.50
2019-04-30T05:30:32.097Z,883.13
2019-04-30T05:31:32.075Z,871.88
2019-04-30T05:32:32.075Z,742.50
2019-04-30T05:33:32.016Z,652.50
2019-04-30T05:34:32.005Z,635.63
2019-04-30T05:35:31.983Z,658.13
2019-04-30T05:36:31.960Z,669.38
2019-04-30T05:37:31.940Z,680.63
2019-04-30T05:38:31.943Z,691.88
2019-04-30T05:39:31.898Z,703.13
2019-04-30T05:40:31.880Z,714.38
2019-04-30T05:41:31.867Z,725.63
2019-04-30T05:42:31.839Z,736.88
2019-04-30T05:43:31.807Z,753.75
2019-04-30T05:44:31.813Z,765.00
2019-04-30T05:45:33.703Z,776.25
2019-04-30T05:46:31.797Z,793.13
2019-04-30T05:47:31.731Z,815.63
2019-04-30T05:48:31.723Z,838.13
2019-04-30T05:49:31.713Z,860.63
2019-04-30T05:50:31.670Z,888.75
2019-04-30T05:51:31.646Z,916.88
2019-04-30T05:52:31.645Z,956.25
2019-04-30T05:53:31.612Z,984.38
2019-04-30T05:54:31.597Z,1006.88
2019-04-30T05:55:31.569Z,1035.00
2019-04-30T05:56:31.552Z,1068.75
2019-04-30T05:57:31.542Z,1108.13
2019-04-30T05:58:31.575Z,1130.63
2019-04-30T05:59:31.491Z,1147.50
2019-04-30T06:00:31.520Z,1158.75
2019-04-30T06:01:31.451Z,1164.38
2019-04-30T06:02:34.081Z,1175.63
2019-04-30T06:03:33.345Z,1186.88
2019-04-30T06:04:31.388Z,1209.38
2019-04-30T06:05:31.391Z,1237.50
2019-04-30T06:06:33.564Z,1260.00
2019-04-30T06:07:31.351Z,1288.13
2019-04-30T06:08:31.337Z,1316.25
2019-04-30T06:09:33.957Z,1350.00
2019-04-30T06:10:31.300Z,1389.38
2019-04-30T06:11:31.260Z,1411.88
2019-04-30T06:12:31.260Z,1451.25
2019-04-30T06:13:32.040Z,1473.75
2019-04-30T06:14:31.221Z,1501.88
2019-04-30T06:15:31.218Z,1507.50
2019-04-30T06:16:31.188Z,1524.38
2019-04-30T06:17:31.163Z,1535.63
2019-04-30T06:18:31.161Z,1546.88
2019-04-30T06:19:31.120Z,1558.13
2019-04-30T06:20:31.108Z,1569.38
2019-04-30T06:21:31.084Z,1586.25
2019-04-30T06:22:31.131Z,1597.50
2019-04-30T06:23:31.049Z,1636.88
2019-04-30T06:24:31.048Z,1653.75
2019-04-30T06:25:41.302Z,1698.75
2019-04-30T06:26:31.020Z,1726.88
2019-04-30T06:27:30.994Z,1755.00
2019-04-30T06:28:30.972Z,1788.75
2019-04-30T06:29:30.976Z,1822.50
2019-04-30T06:30:30.968Z,1839.38
2019-04-30T06:31:34.263Z,1856.25
2019-04-30T06:32:30.930Z,1884.38
2019-04-30T06:33:30.904Z,1912.50
2019-04-30T06:34:30.928Z,1946.25
2019-04-30T06:35:30.889Z,1974.38
2019-04-30T06:36:30.860Z,1980.00
2019-04-30T06:37:31.599Z,2013.75
2019-04-30T06:38:30.815Z,2036.25
2019-04-30T06:39:30.835Z,2075.63
2019-04-30T06:40:30.813Z,2081.25
2019-04-30T06:41:30.846Z,2092.50
2019-04-30T06:42:30.787Z,2109.38
2019-04-30T06:43:30.754Z,2126.25
2019-04-30T06:44:37.356Z,2154.38
2019-04-30T06:45:30.758Z,2154.38
2019-04-30T06:46:30.719Z,2193.75
2019-04-30T06:47:33.161Z,2205.00
2019-04-30T06:48:30.690Z,2238.75
2019-04-30T06:49:30.687Z,2255.63
2019-04-30T06:50:30.667Z,2272.50
2019-04-30T06:51:30.877Z,2311.88
2019-04-30T06:52:30.633Z,2351.25
2019-04-30T06:53:30.590Z,2379.38
2019-04-30T06:54:30.618Z,2407.50
2019-04-30T06:55:30.998Z,2413.13
2019-04-30T06:56:30.573Z,2435.63
2019-04-30T06:57:30.600Z,2458.13
2019-04-30T06:58:30.593Z,2463.75
2019-04-30T06:59:30.533Z,2446.88
2019-04-30T07:00:33.619Z,2463.75
2019-04-30T07:01:30.490Z,2435.63
2019-04-30T07:02:30.895Z,2424.38
2019-04-30T07:03:30.463Z,2413.13
2019-04-30T07:04:30.508Z,2441.25
2019-04-30T07:05:30.449Z,2458.13
2019-04-30T07:06:32.653Z,2486.25
2019-04-30T07:07:38.466Z,2525.63
2019-04-30T07:08:38.858Z,2576.25
2019-04-30T07:09:33.555Z,2621.25
2019-04-30T07:10:30.399Z,2660.63
2019-04-30T07:11:30.360Z,2716.88
2019-04-30T07:12:30.925Z,2750.63
2019-04-30T07:13:30.329Z,2784.38
2019-04-30T07:14:30.327Z,2806.88
2019-04-30T07:15:30.306Z,2823.75
2019-04-30T07:16:30.302Z,2851.88
2019-04-30T07:17:30.277Z,2874.38
2019-04-30T07:18:30.285Z,2891.25
2019-04-30T07:19:38.261Z,2908.13
2019-04-30T07:20:33.937Z,2913.75
2019-04-30T07:21:31.714Z,2936.25
2019-04-30T07:22:40.086Z,2947.50
2019-04-30T07:23:30.204Z,2947.50
2019-04-30T07:24:30.179Z,2958.75
2019-04-30T07:25:30.206Z,2947.50
2019-04-30T07:26:30.183Z,2925.00
2019-04-30T07:27:32.360Z,2902.50
2019-04-30T07:28:43.256Z,2885.63
2019-04-30T07:29:30.124Z,2874.38
2019-04-30T07:30:30.905Z,2885.63
2019-04-30T07:31:30.129Z,2902.50
2019-04-30T07:32:30.087Z,2925.00
2019-04-30T07:33:30.068Z,2947.50
2019-04-30T07:34:36.557Z,2992.50
2019-04-30T07:35:30.054Z,3048.75
2019-04-30T07:36:46.880Z,3099.38
2019-04-30T07:38:35.618Z,3172.50
2019-04-30T07:39:33.351Z,3206.25
2019-04-30T07:41:16.296Z,3256.88
2019-04-30T07:42:23.445Z,3279.38
2019-04-30T07:44:30.007Z,3318.75
2019-04-30T07:45:16.315Z,3346.88
2019-04-30T07:47:09.735Z,3397.50
2019-04-30T07:48:09.458Z,3436.88
2019-04-30T07:49:55.960Z,3453.75
2019-04-30T07:50:54.904Z,3470.63
2019-04-30T07:53:01.797Z,3459.38
2019-04-30T07:53:49.638Z,3470.63
2019-04-30T07:55:40.687Z,3487.50
2019-04-30T07:56:41.714Z,3538.13
2019-04-30T07:57:40.710Z,3549.38
2019-04-30T07:58:40.626Z,3560.63
2019-04-30T07:59:40.614Z,3605.63
2019-04-30T08:00:40.599Z,3622.50
2019-04-30T08:02:00.614Z,3633.75
2019-04-30T08:02:43.561Z,3656.25
2019-04-30T08:03:40.938Z,3684.38
2019-04-30T08:04:40.876Z,3690.00
2019-04-30T08:05:40.551Z,3684.38
2019-04-30T08:06:40.726Z,3701.25
2019-04-30T08:07:40.558Z,3712.50
2019-04-30T08:08:41.125Z,3684.38
2019-04-30T08:09:42.335Z,3684.38
2019-04-30T08:10:40.488Z,3690.00
2019-04-30T08:11:43.423Z,3718.13
2019-04-30T08:12:43.103Z,3740.63
2019-04-30T08:13:41.425Z,3757.50
2019-04-30T08:14:40.441Z,3763.13
2019-04-30T08:15:42.292Z,3802.50
2019-04-30T08:16:40.418Z,3825.00
2019-04-30T08:17:40.410Z,3881.25
2019-04-30T08:18:40.396Z,3909.38
2019-04-30T08:19:41.099Z,3926.25
2019-04-30T08:20:40.375Z,3943.13
2019-04-30T08:21:40.362Z,3960.00
2019-04-30T08:22:41.156Z,3971.25
2019-04-30T08:23:40.341Z,3988.13
2019-04-30T08:24:40.331Z,3999.38
2019-04-30T08:25:40.319Z,3982.50
2019-04-30T08:26:40.310Z,3976.88
2019-04-30T08:27:40.297Z,3976.88
2019-04-30T08:28:40.288Z,3971.25
2019-04-30T08:29:40.276Z,3954.38
2019-04-30T08:30:40.265Z,3960.00
2019-04-30T08:31:40.933Z,3965.63
2019-04-30T08:32:40.238Z,3960.00
2019-04-30T08:33:40.340Z,3993.75
2019-04-30T08:34:40.220Z,3999.38
2019-04-30T08:35:40.214Z,4038.75
2019-04-30T08:36:40.197Z,4050.00
2019-04-30T08:37:40.203Z,4061.25
2019-04-30T08:38:40.176Z,4089.38
2019-04-30T08:39:40.175Z,4095.00
2019-04-30T08:40:53.115Z,4095.00
2019-04-30T08:41:40.143Z,4123.13
2019-04-30T08:42:40.437Z,4145.63
2019-04-30T08:43:40.122Z,4151.25
2019-04-30T08:44:40.113Z,4151.25
2019-04-30T08:45:40.108Z,4179.38
2019-04-30T08:46:40.093Z,4213.13
2019-04-30T08:47:40.080Z,4235.63
2019-04-30T08:48:50.271Z,4263.75
2019-04-30T08:49:40.759Z,4258.13
2019-04-30T08:50:40.169Z,4286.25
2019-04-30T08:51:40.552Z,4303.13
2019-04-30T08:52:40.034Z,4331.25
2019-04-30T08:53:41.095Z,4370.63
2019-04-30T08:54:40.005Z,4381.88
2019-04-30T08:55:39.996Z,4404.38
2019-04-30T08:56:39.986Z,4415.63
2019-04-30T08:57:39.978Z,4443.75
2019-04-30T08:58:39.963Z,4460.63
2019-04-30T08:59:39.958Z,4443.75
2019-04-30T09:00:39.941Z,4432.50
2019-04-30T09:01:39.935Z,4438.13
2019-04-30T09:02:39.922Z,4488.75
2019-04-30T09:03:39.910Z,4494.38
2019-04-30T09:04:39.901Z,4539.38
2019-04-30T09:05:39.892Z,4573.13
2019-04-30T09:06:40.135Z,4618.13
2019-04-30T09:07:39.876Z,4668.75
2019-04-30T09:08:40.181Z,4702.50
2019-04-30T09:09:39.851Z,4719.38
2019-04-30T09:10:39.839Z,4741.88
2019-04-30T09:11:51.723Z,4798.13
2019-04-30T09:12:39.981Z,4826.25
2019-04-30T09:13:39.818Z,4865.63
2019-04-30T09:14:40.671Z,4899.38
2019-04-30T09:15:40.147Z,4938.75
2019-04-30T09:16:39.794Z,4978.13
2019-04-30T09:17:39.769Z,5017.50
2019-04-30T09:18:39.770Z,5017.50
2019-04-30T09:19:39.752Z,5000.63
2019-04-30T09:20:40.951Z,4983.75
2019-04-30T09:21:40.212Z,4978.13
2019-04-30T09:22:39.721Z,4978.13
2019-04-30T09:23:47.534Z,4983.75
2019-04-30T09:24:39.702Z,4995.00
2019-04-30T09:25:39.721Z,5028.75
2019-04-30T09:26:39.682Z,5062.50
2019-04-30T09:27:39.817Z,5090.63
2019-04-30T09:28:41.073Z,5146.88
2019-04-30T09:29:39.653Z,5203.13
2019-04-30T09:30:39.664Z,5220.00
2019-04-30T09:31:41.045Z,5265.00
2019-04-30T09:32:39.628Z,5343.75
2019-04-30T09:33:39.618Z,5326.88
2019-04-30T09:34:40.379Z,5310.00
2019-04-30T09:35:39.616Z,5270.63
2019-04-30T09:36:39.586Z,5270.63
2019-04-30T09:37:41.711Z,5236.88
2019-04-30T09:38:39.567Z,5225.63
2019-04-30T09:39:39.562Z,5248.13
2019-04-30T09:40:41.638Z,5265.00
2019-04-30T09:41:41.149Z,5304.38
2019-04-30T09:42:39.529Z,5355.00
2019-04-30T09:43:40.497Z,5394.38
2019-04-30T09:44:39.511Z,5416.88
2019-04-30T09:45:39.501Z,5400.00
2019-04-30T09:46:39.490Z,5366.25
2019-04-30T09:47:41.924Z,5276.25
2019-04-30T09:48:39.475Z,5180.63
2019-04-30T09:49:41.481Z,5073.75
2019-04-30T09:50:39.601Z,5034.38
2019-04-30T09:51:40.061Z,5028.75
2019-04-30T09:52:39.954Z,5011.88
2019-04-30T09:53:39.918Z,5056.88
2019-04-30T09:54:40.071Z,5113.13
2019-04-30T09:55:40.575Z,5197.50
2019-04-30T09:56:39.412Z,5298.75
2019-04-30T09:57:39.390Z,5400.00
2019-04-30T09:58:39.428Z,5467.50
2019-04-30T09:59:39.375Z,5546.25
2019-04-30T10:00:39.371Z,5636.25
2019-04-30T10:01:39.350Z,5698.13
2019-04-30T10:02:39.343Z,5731.88
2019-04-30T10:03:40.104Z,5771.25
2019-04-30T10:04:39.967Z,5799.38
2019-04-30T10:05:39.311Z,5833.13
2019-04-30T10:06:40.364Z,5844.38
2019-04-30T10:07:39.466Z,5861.25
2019-04-30T10:08:47.846Z,5878.13
2019-04-30T10:09:39.280Z,5883.75
2019-04-30T10:10:39.267Z,5878.13
2019-04-30T10:11:39.261Z,5872.50
2019-04-30T10:12:39.293Z,5883.75
2019-04-30T10:13:39.247Z,5895.00
2019-04-30T10:14:40.955Z,5895.00
2019-04-30T10:15:39.222Z,5878.13
2019-04-30T10:16:39.637Z,5866.88
2019-04-30T10:17:39.205Z,5861.25
2019-04-30T10:18:39.194Z,5866.88
2019-04-30T10:19:39.380Z,5816.25
2019-04-30T10:20:39.175Z,5788.13
2019-04-30T10:21:39.166Z,5776.88
2019-04-30T10:22:40.086Z,5788.13
2019-04-30T10:23:39.241Z,5816.25
2019-04-30T10:24:39.365Z,5838.75
2019-04-30T10:25:39.126Z,5866.88
2019-04-30T10:26:39.119Z,5895.00
2019-04-30T10:27:39.130Z,5934.38
2019-04-30T10:28:39.098Z,5951.25
2019-04-30T10:29:41.122Z,6007.50
2019-04-30T10:30:39.083Z,6052.50
2019-04-30T10:31:39.123Z,6063.75
2019-04-30T10:32:39.063Z,6103.13
2019-04-30T10:33:39.059Z,6075.00
2019-04-30T10:34:39.050Z,6080.63
2019-04-30T10:35:39.041Z,6103.13
2019-04-30T10:36:41.508Z,6148.13
2019-04-30T10:37:39.020Z,6170.63
2019-04-30T10:38:39.425Z,6176.25
2019-04-30T10:39:39.169Z,6142.50
2019-04-30T10:40:39.227Z,6159.38
2019-04-30T10:41:39.510Z,6193.13
2019-04-30T10:42:39.304Z,6193.13
2019-04-30T10:43:39.325Z,6165.00
2019-04-30T10:44:38.962Z,6153.75
2019-04-30T10:45:39.084Z,6136.88
2019-04-30T10:46:38.936Z,6170.63
2019-04-30T10:47:39.416Z,6187.50
2019-04-30T10:48:38.916Z,6170.63
2019-04-30T10:49:39.078Z,6181.88
2019-04-30T10:50:40.800Z,6148.13
2019-04-30T10:51:38.960Z,6125.63
2019-04-30T10:52:39.304Z,6120.00
2019-04-30T10:53:38.873Z,6097.50
2019-04-30T10:54:39.013Z,6058.13
2019-04-30T10:55:38.915Z,6018.75
2019-04-30T10:56:38.843Z,5962.50
2019-04-30T10:57:39.697Z,5844.38
2019-04-30T10:58:38.827Z,5788.13
2019-04-30T10:59:38.812Z,5720.63
2019-04-30T11:00:39.064Z,5653.13
2019-04-30T11:01:39.222Z,5591.25
2019-04-30T11:02:46.968Z,5596.88
2019-04-30T11:04:39.924Z,5686.88
2019-04-30T11:05:41.291Z,5793.75
2019-04-30T11:07:28.830Z,5883.75
2019-04-30T11:08:39.262Z,5923.13
2019-04-30T11:10:20.537Z,5951.25
2019-04-30T11:11:20.530Z,5968.13
2019-04-30T11:13:15.179Z,5928.75
2019-04-30T11:14:15.117Z,5940.00
2019-04-30T11:16:13.233Z,5940.00
2019-04-30T11:17:10.039Z,5900.63
2019-04-30T11:19:02.706Z,5906.25
2019-04-30T11:20:02.601Z,5928.75
2019-04-30T11:21:55.605Z,5917.50
2019-04-30T11:22:55.548Z,5872.50
2019-04-30T11:23:55.547Z,5895.00
2019-04-30T11:25:01.628Z,5883.75
2019-04-30T11:25:56.066Z,5900.63
2019-04-30T11:26:55.732Z,5866.88
2019-04-30T11:27:55.735Z,5855.63
2019-04-30T11:28:55.486Z,5833.13
2019-04-30T11:30:01.436Z,5861.25
2019-04-30T11:30:55.497Z,5866.88
2019-04-30T11:31:55.518Z,5850.00
2019-04-30T11:32:55.507Z,5861.25
2019-04-30T11:33:55.303Z,5878.13
2019-04-30T11:34:55.292Z,5917.50
2019-04-30T11:36:02.454Z,5928.75
2019-04-30T11:36:55.268Z,5928.75
2019-04-30T11:37:55.261Z,5917.50
2019-04-30T11:38:55.255Z,5911.88
2019-04-30T11:39:55.249Z,5934.38
2019-04-30T11:40:55.244Z,5962.50
2019-04-30T11:41:55.225Z,5973.75
2019-04-30T11:42:55.220Z,5956.88
2019-04-30T11:43:55.211Z,5906.25
2019-04-30T11:44:55.207Z,5895.00
2019-04-30T11:45:55.197Z,5861.25
2019-04-30T11:46:55.182Z,5895.00
2019-04-30T11:47:55.179Z,5895.00
2019-04-30T11:48:55.177Z,5878.13
2019-04-30T11:49:55.158Z,5855.63
2019-04-30T11:50:55.160Z,5855.63
2019-04-30T11:51:55.149Z,5855.63
2019-04-30T11:53:09.661Z,5838.75
2019-04-30T11:53:55.133Z,5861.25
2019-04-30T11:54:55.123Z,5833.13
2019-04-30T11:55:55.112Z,5821.88
2019-04-30T11:56:55.107Z,5793.75
2019-04-30T11:57:55.094Z,5788.13
2019-04-30T11:58:55.090Z,5793.75
2019-04-30T11:59:55.085Z,5776.88
2019-04-30T12:00:55.070Z,5788.13
2019-04-30T12:01:55.064Z,5748.75
2019-04-30T12:02:55.055Z,5720.63
2019-04-30T12:03:55.072Z,5692.50
2019-04-30T12:04:55.038Z,5698.13
2019-04-30T12:05:55.034Z,5692.50
2019-04-30T12:06:55.026Z,5681.25
2019-04-30T12:07:55.018Z,5647.50
2019-04-30T12:08:55.029Z,5647.50
2019-04-30T12:09:55.001Z,5636.25
2019-04-30T12:10:54.990Z,5619.38
2019-04-30T12:11:54.985Z,5613.75
2019-04-30T12:12:54.974Z,5613.75
2019-04-30T12:13:54.965Z,5596.88
2019-04-30T12:14:54.961Z,5551.88
2019-04-30T12:15:54.941Z,5529.38
2019-04-30T12:16:54.940Z,5484.38
2019-04-30T12:17:54.933Z,5439.38
2019-04-30T12:18:54.926Z,5371.88
2019-04-30T12:19:54.926Z,5321.25
2019-04-30T12:20:54.904Z,5259.38
2019-04-30T12:21:54.894Z,5163.75
2019-04-30T12:22:54.883Z,5062.50
2019-04-30T12:23:54.889Z,5028.75
2019-04-30T12:25:02.504Z,5011.88
2019-04-30T12:25:54.860Z,5034.38
2019-04-30T12:26:54.850Z,5107.50
2019-04-30T12:27:54.845Z,5158.13
2019-04-30T12:28:54.837Z,5203.13
2019-04-30T12:29:54.823Z,5253.75
2019-04-30T12:30:54.810Z,5315.63
2019-04-30T12:31:54.803Z,5349.38
2019-04-30T12:32:54.796Z,5332.50
2019-04-30T12:33:54.781Z,5349.38
2019-04-30T12:34:54.771Z,5349.38
2019-04-30T12:35:54.768Z,5287.50
2019-04-30T12:36:54.756Z,5248.13
2019-04-30T12:37:54.751Z,5225.63
2019-04-30T12:38:54.743Z,5214.38
2019-04-30T12:39:54.766Z,5169.38
2019-04-30T12:40:54.727Z,5141.25
2019-04-30T12:41:54.715Z,5079.38
2019-04-30T12:42:54.707Z,5079.38
2019-04-30T12:43:54.698Z,5062.50
2019-04-30T12:44:54.723Z,5040.00
2019-04-30T12:46:02.545Z,5040.00
2019-04-30T12:46:54.671Z,5056.88
2019-04-30T12:47:54.666Z,5062.50
2019-04-30T12:48:54.660Z,5073.75
2019-04-30T12:49:54.649Z,5056.88
2019-04-30T12:50:54.631Z,5023.13
2019-04-30T12:51:54.661Z,4995.00
2019-04-30T12:52:54.618Z,4966.88
2019-04-30T12:53:54.628Z,4876.88
2019-04-30T12:54:54.601Z,4764.38
2019-04-30T12:55:55.454Z,4640.63
2019-04-30T12:56:54.589Z,4545.00
2019-04-30T12:57:58.634Z,4500.00
2019-04-30T12:58:54.570Z,4466.25
2019-04-30T12:59:54.558Z,4466.25
2019-04-30T13:00:54.551Z,4477.50
2019-04-30T13:01:54.548Z,4522.50